Time;durP1;ratioP1;P1;durP2;ratioP2;P2;SDS_P1;SDS_P2;PMS_P1;PMS_P2;Temp;Humidity;BMP_temperature;BMP_pressure;BME280_temperature;BME280_humidity;BME280_pressure;Samples;Min_cycle;Max_cycle;Signal;HPM_P1;HPM_P2
2021/06/03 00:00:53;;;;;;;4.72;3.65;;;21.00;55.50;;;;;;5009326;28;20490;-77
2021/06/03 00:03:19;;;;;;;8.25;3.90;;;20.90;56.30;;;;;;4994687;28;20402;-77
2021/06/03 00:05:49;;;;;;;4.53;3.45;;;20.90;56.00;;;;;;4993972;28;20026;-78
2021/06/03 00:08:16;;;;;;;5.82;3.42;;;20.90;56.30;;;;;;4980204;28;20026;-77
2021/06/03 00:10:54;;;;;;;5.65;3.45;;;20.80;56.50;;;;;;4966517;28;20034;-77
2021/06/03 00:13:20;;;;;;;6.05;2.92;;;21.10;57.30;;;;;;4994118;28;20084;-77
2021/06/03 00:15:46;;;;;;;5.97;3.25;;;20.60;58.50;;;;;;4991682;28;20440;-77
2021/06/03 00:18:12;;;;;;;7.22;3.50;;;20.50;58.50;;;;;;4993422;28;20141;-77
2021/06/03 00:20:38;;;;;;;4.97;3.47;;;20.40;58.50;;;;;;4989014;28;20053;-78
2021/06/03 00:23:03;;;;;;;4.05;3.38;;;20.50;58.80;;;;;;4995140;28;20029;-77
2021/06/03 00:25:29;;;;;;;8.15;3.95;;;20.20;59.20;;;;;;4992275;28;20718;-77
2021/06/03 00:27:55;;;;;;;4.50;3.40;;;20.00;60.70;;;;;;4991211;28;20022;-78
2021/06/03 00:30:21;;;;;;;6.90;3.20;;;20.10;59.10;;;;;;4990548;28;20117;-77
2021/06/03 00:32:46;;;;;;;3.45;3.15;;;20.10;59.90;;;;;;4991524;28;20084;-77
2021/06/03 00:35:12;;;;;;;3.85;3.17;;;19.80;60.40;;;;;;4975496;28;20053;-77
2021/06/03 00:37:38;;;;;;;4.03;3.50;;;20.00;59.50;;;;;;4992913;28;20080;-77
2021/06/03 00:40:05;;;;;;;7.03;3.65;;;19.90;59.70;;;;;;4991085;28;20078;-78
2021/06/03 00:42:31;;;;;;;4.43;3.47;;;19.80;61.70;;;;;;4991551;28;20030;-77
2021/06/03 00:44:56;;;;;;;9.80;3.97;;;19.80;60.90;;;;;;4994683;28;20022;-78
2021/06/03 00:47:22;;;;;;;6.03;3.80;;;19.80;61.30;;;;;;4995460;28;20093;-77
2021/06/03 00:49:48;;;;;;;3.85;3.40;;;19.60;62.20;;;;;;4989045;28;20061;-78
2021/06/03 00:52:13;;;;;;;5.32;3.33;;;19.40;62.70;;;;;;4993297;28;20033;-78
2021/06/03 00:54:39;;;;;;;4.68;3.72;;;19.50;61.90;;;;;;4975587;28;20026;-76
2021/06/03 00:57:05;;;;;;;5.40;3.63;;;19.50;62.60;;;;;;4992962;28;20018;-77
2021/06/03 00:59:31;;;;;;;6.05;3.20;;;19.50;62.10;;;;;;5024014;28;20038;-77
2021/06/03 01:01:56;;;;;;;4.35;3.38;;;19.60;61.90;;;;;;4981192;28;20371;-77
2021/06/03 01:04:22;;;;;;;5.65;3.38;;;19.60;62.30;;;;;;4994034;28;20494;-77
2021/06/03 01:06:48;;;;;;;3.53;3.00;;;19.50;62.50;;;;;;4995656;28;20029;-78
2021/06/03 01:09:33;;;;;;;4.10;3.35;;;19.30;64.40;;;;;;4982221;28;20160;-77
2021/06/03 01:12:31;;;;;;;8.13;3.47;;;19.20;64.20;;;;;;4994579;28;20563;-77
2021/06/03 01:14:58;;;;;;;7.47;4.13;;;19.30;63.80;;;;;;4981387;28;20058;-81
2021/06/03 01:17:24;;;;;;;4.75;3.92;;;19.20;64.40;;;;;;4996550;28;20386;-81
2021/06/03 01:19:51;;;;;;;5.35;3.55;;;19.20;64.30;;;;;;4994545;28;20382;-81
2021/06/03 01:22:22;;;;;;;7.28;3.88;;;19.30;64.90;;;;;;4994978;28;20114;-81
2021/06/03 01:24:49;;;;;;;4.07;3.50;;;19.40;64.20;;;;;;4984132;28;20092;-81
2021/06/03 01:27:17;;;;;;;5.65;4.28;;;19.30;65.80;;;;;;5009511;28;20037;-81
2021/06/03 01:29:52;;;;;;;6.13;3.97;;;19.20;64.60;;;;;;4983011;28;20029;-80
2021/06/03 01:32:18;;;;;;;5.07;3.75;;;19.30;64.20;;;;;;4996972;28;20029;-81
2021/06/03 01:34:44;;;;;;;6.50;3.58;;;19.30;64.20;;;;;;4995987;28;20117;-80
2021/06/03 01:37:10;;;;;;;5.65;3.65;;;19.40;64.00;;;;;;4978011;28;20178;-81
2021/06/03 01:39:36;;;;;;;7.53;3.88;;;19.40;63.30;;;;;;4994931;28;20032;-81
2021/06/03 01:42:02;;;;;;;5.63;3.80;;;19.40;63.80;;;;;;4998655;28;20030;-81
2021/06/03 01:44:28;;;;;;;6.45;4.45;;;19.50;62.80;;;;;;4993614;28;20133;-81
2021/06/03 01:46:53;;;;;;;8.65;3.85;;;19.20;63.70;;;;;;4994179;28;20224;-81
2021/06/03 01:49:19;;;;;;;8.65;4.43;;;19.40;64.10;;;;;;4983870;28;20531;-81
2021/06/03 01:51:45;;;;;;;5.65;4.13;;;19.20;64.70;;;;;;4980973;28;20026;-80
2021/06/03 01:54:11;;;;;;;6.18;4.50;;;19.00;65.80;;;;;;4993991;28;20386;-81
2021/06/03 01:56:37;;;;;;;6.82;4.25;;;18.90;65.70;;;;;;4995279;28;20018;-81
2021/06/03 01:59:02;;;;;;;6.18;4.18;;;19.10;64.90;;;;;;5002460;28;20081;-81
2021/06/03 02:01:30;;;;;;;4.57;3.95;;;19.00;64.50;;;;;;4978914;28;20057;-81
2021/06/03 02:03:56;;;;;;;6.45;4.15;;;19.00;65.00;;;;;;4993904;28;20442;-81
2021/06/03 02:06:22;;;;;;;7.30;4.30;;;19.10;63.90;;;;;;5000049;28;20030;-81
2021/06/03 02:08:47;;;;;;;6.25;4.10;;;19.30;64.40;;;;;;4984326;28;20077;-81
2021/06/03 02:11:13;;;;;;;7.35;4.30;;;18.90;65.10;;;;;;4993235;28;20113;-79
2021/06/03 02:13:49;;;;;;;5.15;3.97;;;19.00;64.70;;;;;;4992449;28;20041;-80
2021/06/03 02:16:38;;;;;;;5.78;4.10;;;18.90;65.50;;;;;;5001743;28;20022;-80
2021/06/03 02:19:21;;;;;;;6.47;4.10;;;18.90;64.60;;;;;;4996210;28;20037;-80
2021/06/03 02:21:47;;;;;;;8.43;4.28;;;19.00;65.20;;;;;;4995203;28;20035;-80
2021/06/03 02:24:13;;;;;;;7.95;3.97;;;18.90;65.60;;;;;;4995650;28;20534;-80
2021/06/03 02:26:40;;;;;;;6.75;4.30;;;18.80;65.90;;;;;;5000685;28;20027;-80
2021/06/03 02:29:06;;;;;;;8.73;4.32;;;18.90;64.60;;;;;;4984839;28;20030;-80
2021/06/03 02:31:32;;;;;;;5.93;3.70;;;18.90;65.10;;;;;;4993665;28;20495;-80
2021/06/03 02:33:57;;;;;;;7.82;4.03;;;19.00;64.50;;;;;;4995577;28;20467;-80
2021/06/03 02:36:23;;;;;;;6.20;3.78;;;19.10;64.10;;;;;;4978277;28;20026;-80
2021/06/03 02:38:49;;;;;;;9.05;4.13;;;19.00;65.00;;;;;;4996236;28;20080;-80
2021/06/03 02:41:14;;;;;;;6.68;4.30;;;19.10;63.40;;;;;;4994727;28;20026;-81
2021/06/03 02:43:45;;;;;;;10.15;4.05;;;19.00;64.80;;;;;;4992629;28;20383;-80
2021/06/03 02:46:11;;;;;;;6.10;4.15;;;18.90;64.00;;;;;;4983506;28;20079;-80
2021/06/03 02:48:36;;;;;;;9.45;4.15;;;18.90;64.40;;;;;;5002761;28;20025;-80
2021/06/03 02:51:02;;;;;;;7.38;4.47;;;19.00;63.50;;;;;;5010009;28;20027;-80
2021/06/03 02:53:28;;;;;;;4.07;3.55;;;19.10;63.10;;;;;;4994099;28;20555;-80
2021/06/03 02:55:54;;;;;;;5.57;3.70;;;19.00;63.60;;;;;;4977039;28;20124;-80
2021/06/03 02:58:19;;;;;;;10.63;3.97;;;19.10;62.70;;;;;;4994314;28;20034;-80
2021/06/03 03:00:45;;;;;;;8.00;3.95;;;19.10;62.60;;;;;;4996342;28;20025;-79
2021/06/03 03:03:11;;;;;;;6.80;3.72;;;19.00;63.60;;;;;;4992093;28;20022;-80
2021/06/03 03:05:38;;;;;;;4.43;4.03;;;19.00;63.20;;;;;;4993559;28;20155;-80
2021/06/03 03:08:03;;;;;;;6.38;3.63;;;19.00;63.50;;;;;;5000889;28;20094;-80
2021/06/03 03:10:33;;;;;;;7.82;3.90;;;18.90;63.30;;;;;;4998222;28;20117;-80
2021/06/03 03:12:59;;;;;;;6.82;4.22;;;18.90;64.00;;;;;;4984049;28;20036;-80
2021/06/03 03:15:24;;;;;;;6.88;3.75;;;18.80;64.30;;;;;;4991827;28;20029;-80
2021/06/03 03:17:50;;;;;;;6.95;4.75;;;18.80;65.20;;;;;;4994252;28;20109;-80
2021/06/03 03:20:17;;;;;;;8.93;4.60;;;18.70;65.10;;;;;;4991348;28;20072;-79
2021/06/03 03:22:42;;;;;;;8.05;4.50;;;18.60;65.70;;;;;;4975654;28;20369;-79
2021/06/03 03:25:10;;;;;;;9.13;4.93;;;18.60;65.70;;;;;;4998893;28;20045;-78
2021/06/03 03:27:37;;;;;;;8.98;4.95;;;18.20;67.30;;;;;;4997919;28;20049;-78
2021/06/03 03:30:03;;;;;;;8.48;4.85;;;18.30;67.00;;;;;;4990193;28;20026;-78
2021/06/03 03:32:29;;;;;;;6.18;4.82;;;18.20;68.10;;;;;;4991388;28;20034;-78
2021/06/03 03:34:54;;;;;;;7.65;4.20;;;18.10;68.90;;;;;;4982200;28;20084;-78
2021/06/03 03:37:20;;;;;;;9.32;5.13;;;18.10;68.60;;;;;;4990431;28;20045;-78
2021/06/03 03:39:45;;;;;;;10.02;4.50;;;18.10;67.50;;;;;;4990538;28;20498;-78
2021/06/03 03:42:11;;;;;;;5.32;4.00;;;18.00;68.20;;;;;;4992906;28;20463;-79
2021/06/03 03:44:37;;;;;;;7.28;4.75;;;17.90;69.20;;;;;;4984497;28;20105;-78
2021/06/03 03:47:02;;;;;;;5.25;4.07;;;17.90;68.60;;;;;;4990635;28;20117;-78
2021/06/03 03:49:28;;;;;;;7.25;3.95;;;17.90;67.80;;;;;;4988392;28;20045;-79
2021/06/03 03:51:54;;;;;;;6.45;4.38;;;18.00;67.70;;;;;;4980983;28;20062;-78
2021/06/03 03:54:19;;;;;;;4.50;3.70;;;17.90;68.70;;;;;;4993040;28;20033;-79
2021/06/03 03:56:45;;;;;;;5.57;4.22;;;17.80;70.00;;;;;;4990186;28;20021;-78
2021/06/03 03:59:11;;;;;;;4.82;3.72;;;17.80;70.40;;;;;;4958656;28;20388;-78
2021/06/03 04:01:36;;;;;;;6.97;4.00;;;17.80;68.90;;;;;;4991197;28;20038;-78
2021/06/03 04:04:02;;;;;;;7.10;4.10;;;18.00;68.90;;;;;;4991971;28;20062;-78
2021/06/03 04:06:27;;;;;;;6.15;3.80;;;17.90;68.00;;;;;;4993011;28;20073;-78
2021/06/03 04:08:53;;;;;;;5.03;3.53;;;18.00;67.40;;;;;;4959207;28;20029;-78
2021/06/03 04:11:20;;;;;;;6.10;3.95;;;18.00;68.80;;;;;;4991258;28;20030;-78
2021/06/03 04:13:46;;;;;;;6.82;3.95;;;18.00;67.90;;;;;;4989948;28;20281;-78
2021/06/03 04:16:12;;;;;;;4.50;3.92;;;18.00;68.40;;;;;;4991980;28;20262;-78
2021/06/03 04:18:37;;;;;;;5.15;4.18;;;18.00;68.10;;;;;;4992036;28;20543;-78
2021/06/03 04:21:03;;;;;;;6.05;3.33;;;18.00;69.00;;;;;;4992084;28;20029;-78
2021/06/03 04:23:29;;;;;;;5.95;3.67;;;18.10;67.60;;;;;;4993443;28;20037;-78
2021/06/03 04:25:55;;;;;;;10.10;3.70;;;18.10;67.80;;;;;;4978356;28;20026;-78
2021/06/03 04:28:20;;;;;;;4.13;3.60;;;18.20;67.50;;;;;;4990854;28;20045;-78
2021/06/03 04:30:46;;;;;;;11.73;3.85;;;18.20;67.50;;;;;;4981133;28;20036;-78
2021/06/03 04:33:12;;;;;;;5.30;4.28;;;18.40;67.50;;;;;;4991639;28;20042;-78
2021/06/03 04:35:38;;;;;;;7.22;3.83;;;18.50;66.80;;;;;;4995672;28;20030;-78
2021/06/03 04:38:03;;;;;;;7.85;3.20;;;18.60;66.00;;;;;;4994824;28;20030;-78
2021/06/03 04:40:29;;;;;;;9.43;3.70;;;18.70;68.10;;;;;;5001757;28;20356;-78
2021/06/03 04:42:54;;;;;;;4.88;3.40;;;18.90;65.40;;;;;;4995404;28;20093;-78
2021/06/03 04:45:20;;;;;;;4.88;3.15;;;20.30;62.80;;;;;;4995985;28;20030;-79
2021/06/03 04:47:46;;;;;;;3.30;3.00;;;21.50;56.80;;;;;;4984773;28;20349;-78
2021/06/03 04:50:16;;;;;;;4.90;3.25;;;22.40;53.30;;;;;;4998337;28;20430;-79
2021/06/03 04:52:42;;;;;;;6.40;3.40;;;22.30;53.30;;;;;;4995960;28;20037;-79
2021/06/03 04:55:13;;;;;;;3.38;2.60;;;21.30;55.60;;;;;;5000351;28;20030;-78
2021/06/03 04:57:38;;;;;;;4.97;3.08;;;20.40;58.20;;;;;;4983588;28;20395;-78
2021/06/03 05:00:06;;;;;;;6.60;3.00;;;20.10;60.20;;;;;;4994305;28;20022;-78
2021/06/03 05:02:32;;;;;;;5.03;2.88;;;20.50;59.60;;;;;;4978074;28;20388;-78
2021/06/03 05:04:58;;;;;;;6.25;3.25;;;21.60;58.10;;;;;;4994827;28;20207;-78
2021/06/03 05:07:23;;;;;;;5.38;2.85;;;20.80;58.80;;;;;;4961224;28;20064;-78
2021/06/03 05:09:49;;;;;;;4.15;3.38;;;20.50;59.20;;;;;;4995792;28;20033;-79
2021/06/03 05:12:15;;;;;;;4.72;2.90;;;20.10;60.50;;;;;;4996650;28;20030;-78
2021/06/03 05:14:41;;;;;;;3.97;3.33;;;19.90;62.40;;;;;;4997087;28;20022;-79
2021/06/03 05:17:07;;;;;;;4.45;3.15;;;20.00;62.10;;;;;;5000368;28;20356;-78
2021/06/03 05:19:33;;;;;;;8.75;3.70;;;20.10;60.30;;;;;;5000707;28;20026;-78
2021/06/03 05:21:59;;;;;;;5.60;3.40;;;20.10;61.40;;;;;;4984389;28;20026;-78
2021/06/03 05:24:25;;;;;;;6.80;3.85;;;20.40;60.20;;;;;;4997003;28;20029;-78
2021/06/03 05:26:50;;;;;;;4.90;3.40;;;21.30;59.40;;;;;;4975384;28;20026;-78
2021/06/03 05:29:16;;;;;;;8.07;3.25;;;21.50;59.10;;;;;;4998212;28;20036;-78
2021/06/03 05:31:45;;;;;;;9.25;3.83;;;21.60;56.50;;;;;;4996130;28;20030;-79
2021/06/03 05:34:11;;;;;;;4.70;3.33;;;21.40;59.50;;;;;;4993816;28;20100;-79
2021/06/03 05:36:37;;;;;;;6.00;3.50;;;21.20;59.10;;;;;;4975829;28;20084;-79
2021/06/03 05:39:04;;;;;;;7.53;3.80;;;21.10;59.30;;;;;;5005962;28;20030;-79
2021/06/03 05:41:29;;;;;;;8.75;3.67;;;20.90;61.10;;;;;;5001177;28;20040;-79
2021/06/03 05:43:55;;;;;;;4.68;3.45;;;20.80;59.40;;;;;;4975235;28;20018;-79
2021/06/03 05:46:20;;;;;;;5.03;3.92;;;20.50;61.40;;;;;;4976780;28;20072;-79
2021/06/03 05:48:46;;;;;;;9.75;3.80;;;20.40;60.20;;;;;;5023511;28;20072;-79
2021/06/03 05:51:12;;;;;;;6.70;3.72;;;20.40;62.90;;;;;;4998296;28;20038;-79
2021/06/03 05:53:37;;;;;;;7.07;3.65;;;20.30;61.70;;;;;;4981075;28;20371;-79
2021/06/03 05:56:03;;;;;;;5.15;3.22;;;20.20;61.30;;;;;;4993681;28;20041;-79
2021/06/03 05:58:29;;;;;;;4.70;3.17;;;20.30;62.50;;;;;;4997894;28;20088;-78
2021/06/03 06:00:54;;;;;;;5.93;3.75;;;20.40;61.00;;;;;;4999546;28;20121;-79
2021/06/03 06:03:23;;;;;;;6.90;3.13;;;20.50;61.20;;;;;;5008559;28;20065;-78
2021/06/03 06:08:23;;;;;;;7.03;3.22;;;21.10;60.10;;;;;;4994428;28;20041;-79
2021/06/03 06:10:48;;;;;;;5.40;3.47;;;20.80;60.70;;;;;;4993512;28;20042;-79
2021/06/03 06:13:14;;;;;;;6.28;3.92;;;20.70;61.20;;;;;;4984161;28;20407;-78
2021/06/03 06:15:40;;;;;;;9.38;3.55;;;21.10;62.70;;;;;;4995438;28;20730;-79
2021/06/03 06:18:06;;;;;;;6.43;3.10;;;21.50;59.60;;;;;;4993708;28;20038;-78
2021/06/03 06:20:33;;;;;;;5.05;2.92;;;22.60;57.10;;;;;;4996373;28;20125;-78
2021/06/03 06:22:59;;;;;;;3.58;3.13;;;22.10;58.40;;;;;;4963134;28;20541;-78
2021/06/03 06:25:25;;;;;;;6.57;3.53;;;22.10;56.50;;;;;;5000930;28;20057;-79
2021/06/03 06:27:50;;;;;;;3.90;3.50;;;22.00;57.60;;;;;;4975236;28;20459;-79
2021/06/03 06:30:17;;;;;;;6.70;3.60;;;21.80;59.20;;;;;;4992061;28;20033;-79
2021/06/03 06:32:42;;;;;;;3.50;3.03;;;22.00;58.20;;;;;;4977008;28;20297;-78
2021/06/03 06:35:09;;;;;;;8.13;3.33;;;22.60;57.00;;;;;;4999122;28;20335;-79
2021/06/03 06:37:34;;;;;;;8.40;3.58;;;23.40;55.40;;;;;;4993324;28;20041;-79
2021/06/03 06:40:02;;;;;;;5.35;3.10;;;24.30;53.70;;;;;;4977145;28;20502;-79
2021/06/03 06:42:30;;;;;;;6.15;3.13;;;24.80;50.90;;;;;;5000297;28;20029;-79
2021/06/03 06:44:55;;;;;;;4.05;3.05;;;24.70;52.60;;;;;;4995716;28;20087;-78
2021/06/03 06:47:21;;;;;;;7.78;3.10;;;24.10;53.50;;;;;;4998501;28;20030;-79
2021/06/03 06:49:48;;;;;;;3.75;3.22;;;23.50;55.40;;;;;;4989323;28;20037;-78
2021/06/03 06:52:13;;;;;;;8.30;3.30;;;23.40;56.30;;;;;;4999501;28;20030;-79
2021/06/03 06:54:39;;;;;;;5.28;3.35;;;23.50;56.30;;;;;;4970839;28;20613;-79
2021/06/03 06:57:05;;;;;;;3.55;2.90;;;24.90;54.20;;;;;;4970366;28;20025;-79
2021/06/03 06:59:31;;;;;;;4.75;3.10;;;25.00;52.40;;;;;;4970226;28;20034;-79
2021/06/03 07:01:56;;;;;;;5.90;3.55;;;25.00;51.70;;;;;;4983329;28;20041;-79
2021/06/03 07:04:22;;;;;;;4.63;3.20;;;24.50;52.70;;;;;;4968449;28;20091;-79
2021/06/03 07:06:48;;;;;;;3.85;2.83;;;23.70;54.20;;;;;;4983785;28;20775;-79
2021/06/03 07:09:13;;;;;;;6.28;3.28;;;23.60;55.30;;;;;;4980802;28;20117;-79
2021/06/03 07:11:39;;;;;;;5.97;3.35;;;23.00;56.20;;;;;;4984339;28;20468;-79
2021/06/03 07:14:05;;;;;;;4.93;3.50;;;22.80;58.70;;;;;;4987025;28;20177;-79
2021/06/03 07:16:30;;;;;;;5.40;3.13;;;22.50;59.20;;;;;;5015312;28;20156;-79
2021/06/03 07:18:56;;;;;;;5.70;3.63;;;22.30;60.50;;;;;;4976839;28;20030;-79
2021/06/03 07:21:22;;;;;;;4.35;3.22;;;22.10;61.10;;;;;;4971248;28;20046;-79
2021/06/03 07:23:48;;;;;;;4.25;3.78;;;21.90;62.10;;;;;;4969018;28;20034;-79
2021/06/03 07:26:14;;;;;;;6.40;3.72;;;21.70;62.40;;;;;;4982846;28;20393;-79
2021/06/03 07:28:39;;;;;;;6.25;3.30;;;21.60;62.00;;;;;;4977875;28;20030;-79
2021/06/03 07:31:05;;;;;;;6.00;3.72;;;21.70;64.50;;;;;;4968452;28;20022;-80
2021/06/03 07:33:31;;;;;;;7.85;4.72;;;21.60;70.30;;;;;;4983010;28;20030;-80
2021/06/03 07:35:56;;;;;;;8.18;4.93;;;21.50;69.30;;;;;;4984500;28;20429;-79
2021/06/03 07:38:23;;;;;;;5.40;4.57;;;21.20;73.80;;;;;;4970740;28;20033;-79
2021/06/03 07:40:48;;;;;;;6.32;4.40;;;21.00;74.20;;;;;;4968669;28;20225;-79
2021/06/03 07:43:14;;;;;;;6.22;4.18;;;20.80;72.70;;;;;;4952307;28;20046;-80
2021/06/03 07:45:40;;;;;;;6.55;4.10;;;20.60;75.50;;;;;;4988035;28;20088;-80
2021/06/03 07:48:06;;;;;;;5.00;4.20;;;20.60;76.50;;;;;;4983477;28;20062;-80
2021/06/03 07:50:33;;;;;;;6.20;4.57;;;20.70;76.80;;;;;;4954329;28;20026;-79
2021/06/03 07:53:00;;;;;;;5.10;4.45;;;20.80;78.30;;;;;;4970822;28;20466;-79
2021/06/03 07:55:25;;;;;;;5.03;4.20;;;20.90;76.90;;;;;;4983500;28;20026;-79
2021/06/03 07:57:52;;;;;;;5.45;4.75;;;21.10;76.20;;;;;;4968389;28;20113;-79
2021/06/03 08:00:19;;;;;;;7.32;4.00;;;21.20;75.30;;;;;;4981696;28;20106;-79
2021/06/03 08:02:45;;;;;;;6.15;4.72;;;21.10;75.00;;;;;;4967396;28;20076;-79
2021/06/03 08:05:12;;;;;;;7.32;4.82;;;21.10;72.20;;;;;;4983175;28;20034;-79
2021/06/03 08:07:38;;;;;;;7.30;4.50;;;21.10;74.50;;;;;;4981707;28;20034;-80
2021/06/03 08:10:05;;;;;;;7.30;4.75;;;21.10;75.70;;;;;;4974335;28;20042;-79
2021/06/03 08:12:30;;;;;;;8.50;5.25;;;20.80;76.80;;;;;;4988928;28;20536;-79
2021/06/03 08:14:56;;;;;;;9.05;4.22;;;20.80;75.50;;;;;;4990245;28;20038;-79
2021/06/03 08:17:22;;;;;;;5.95;4.55;;;20.90;74.70;;;;;;5005793;28;20087;-79
2021/06/03 08:19:47;;;;;;;6.18;5.00;;;20.70;75.20;;;;;;4969590;28;20157;-79
2021/06/03 08:22:13;;;;;;;6.13;4.88;;;20.70;75.30;;;;;;4970832;28;20348;-79
2021/06/03 08:24:38;;;;;;;9.93;5.68;;;20.70;78.30;;;;;;4988162;28;20464;-79
2021/06/03 08:27:04;;;;;;;8.68;5.80;;;21.00;75.90;;;;;;4972335;28;20120;-79
2021/06/03 08:29:30;;;;;;;7.38;5.30;;;21.00;75.10;;;;;;4968154;28;20022;-79
2021/06/03 08:31:56;;;;;;;6.43;5.05;;;21.10;71.90;;;;;;4988134;28;20478;-79
2021/06/03 08:34:21;;;;;;;7.30;5.10;;;21.20;73.40;;;;;;4973605;28;20035;-79
2021/06/03 08:36:47;;;;;;;7.45;5.07;;;21.30;72.50;;;;;;4955566;28;20033;-79
2021/06/03 08:39:13;;;;;;;6.68;5.57;;;21.40;72.20;;;;;;4974525;28;20363;-79
2021/06/03 08:41:40;;;;;;;8.55;4.93;;;21.60;73.80;;;;;;4987783;28;20064;-79
2021/06/03 08:44:06;;;;;;;6.93;5.05;;;21.70;72.60;;;;;;4973869;28;20104;-79
2021/06/03 08:46:31;;;;;;;8.85;4.57;;;22.10;70.10;;;;;;4988670;28;20180;-79
2021/06/03 08:48:59;;;;;;;6.95;5.25;;;22.60;68.30;;;;;;4956641;28;20388;-79
2021/06/03 08:51:25;;;;;;;6.68;4.97;;;23.20;67.10;;;;;;4969623;28;20022;-79
2021/06/03 08:53:51;;;;;;;7.78;5.03;;;23.90;64.80;;;;;;4987317;28;20443;-79
2021/06/03 08:56:20;;;;;;;6.55;4.63;;;24.00;62.20;;;;;;4982985;28;20150;-79
2021/06/03 08:58:53;;;;;;;5.88;5.28;;;24.40;63.80;;;;;;4974642;28;20029;-79
2021/06/03 09:01:19;;;;;;;7.15;4.82;;;24.60;62.10;;;;;;4969525;28;20053;-78
2021/06/03 09:03:44;;;;;;;4.93;4.30;;;25.00;60.50;;;;;;4981725;28;20427;-79
2021/06/03 09:06:13;;;;;;;8.65;4.82;;;24.90;61.00;;;;;;4987656;28;20371;-79
2021/06/03 09:08:40;;;;;;;8.77;4.68;;;24.30;60.60;;;;;;4973556;28;20022;-79
2021/06/03 09:11:10;;;;;;;4.65;3.90;;;24.10;61.60;;;;;;4962534;28;20038;-79
2021/06/03 09:13:37;;;;;;;5.88;3.90;;;24.10;62.30;;;;;;4987814;28;20411;-79
2021/06/03 09:16:09;;;;;;;7.32;4.10;;;23.90;62.40;;;;;;4988559;28;20216;-79
2021/06/03 09:18:42;;;;;;;6.07;3.42;;;24.00;63.20;;;;;;4986756;28;20033;-79
2021/06/03 09:21:28;;;;;;;6.72;3.97;;;23.70;63.60;;;;;;4986611;28;20026;-79
2021/06/03 09:24:02;;;;;;;5.57;4.65;;;23.40;65.90;;;;;;4972957;28;20037;-79
2021/06/03 09:26:29;;;;;;;6.43;4.68;;;23.10;68.30;;;;;;4988364;28;20229;-79
2021/06/03 09:28:55;;;;;;;6.65;5.18;;;22.90;69.60;;;;;;4971366;28;20066;-79
2021/06/03 09:31:31;;;;;;;8.45;5.45;;;22.70;70.50;;;;;;4972309;28;20045;-79
2021/06/03 09:34:13;;;;;;;8.63;5.15;;;22.40;70.40;;;;;;4976605;28;20030;-79
2021/06/03 09:36:50;;;;;;;6.72;5.05;;;22.40;71.60;;;;;;4990524;28;20030;-79
2021/06/03 09:39:20;;;;;;;8.82;5.80;;;22.50;72.00;;;;;;4989331;28;20125;-79
2021/06/03 09:41:49;;;;;;;8.00;5.50;;;22.60;70.30;;;;;;5005397;28;20029;-79
2021/06/03 09:44:20;;;;;;;7.65;5.68;;;22.60;70.20;;;;;;4976317;28;20034;-79
2021/06/03 09:46:47;;;;;;;8.93;5.53;;;22.50;69.80;;;;;;4985174;28;20036;-79
2021/06/03 09:49:18;;;;;;;7.60;6.13;;;22.50;70.60;;;;;;4969133;28;20029;-79
2021/06/03 09:51:45;;;;;;;7.25;5.70;;;22.50;70.70;;;;;;4969994;28;20533;-79
2021/06/03 09:54:13;;;;;;;8.82;5.68;;;22.50;72.50;;;;;;4985227;28;20379;-79
2021/06/03 09:56:43;;;;;;;7.78;5.68;;;22.50;72.40;;;;;;5000095;28;20178;-79
2021/06/03 09:59:30;;;;;;;9.27;5.97;;;22.50;70.60;;;;;;4976386;28;20025;-79
2021/06/03 10:02:05;;;;;;;13.02;6.35;;;22.30;73.50;;;;;;5026630;28;20037;-80
2021/06/03 10:04:33;;;;;;;8.75;7.40;;;22.10;76.20;;;;;;4996867;28;20026;-79
2021/06/03 10:07:04;;;;;;;9.68;7.20;;;21.90;78.30;;;;;;4974837;28;20095;-80
2021/06/03 10:10:03;;;;;;;10.48;7.20;;;21.60;79.00;;;;;;4995725;28;20512;-79
2021/06/03 10:12:39;;;;;;;10.98;6.93;;;21.30;80.80;;;;;;4999031;28;20038;-79
2021/06/03 10:15:22;;;;;;;10.00;8.18;;;21.20;84.30;;;;;;4996911;28;20022;-79
2021/06/03 10:17:57;;;;;;;11.07;8.07;;;21.10;84.50;;;;;;4994985;28;20113;-79
2021/06/03 10:20:33;;;;;;;12.27;8.88;;;20.90;86.10;;;;;;5011604;28;20033;-79
2021/06/03 10:22:59;;;;;;;11.02;8.45;;;21.00;87.80;;;;;;4992406;28;20038;-79
2021/06/03 10:25:26;;;;;;;11.15;8.63;;;20.90;88.40;;;;;;4983388;28;20034;-80
2021/06/03 10:27:53;;;;;;;8.68;6.90;;;20.90;88.90;;;;;;5004865;28;20222;-80
2021/06/03 10:30:26;;;;;;;13.00;8.13;;;20.80;84.90;;;;;;4993059;28;20030;-80
2021/06/03 10:32:54;;;;;;;9.73;7.28;;;21.00;87.80;;;;;;5007016;28;20076;-80
2021/06/03 10:35:22;;;;;;;14.43;7.85;;;20.90;86.30;;;;;;4993437;28;20127;-80
2021/06/03 10:37:48;;;;;;;15.00;7.95;;;20.90;87.50;;;;;;4977055;28;20486;-79
2021/06/03 10:40:18;;;;;;;7.43;6.15;;;21.30;88.50;;;;;;4982142;28;20110;-80
2021/06/03 10:42:44;;;;;;;8.75;5.97;;;21.60;83.60;;;;;;4993705;28;20041;-80
2021/06/03 10:45:12;;;;;;;10.25;6.18;;;21.90;85.60;;;;;;4976682;28;20038;-80
2021/06/03 10:47:37;;;;;;;8.80;5.20;;;22.20;85.30;;;;;;4983284;28;20030;-80
2021/06/03 10:50:04;;;;;;;5.95;5.28;;;22.50;80.30;;;;;;4989529;28;20580;-80
2021/06/03 10:52:30;;;;;;;8.57;5.20;;;22.60;79.00;;;;;;4999582;28;20398;-80
2021/06/03 10:54:56;;;;;;;9.00;6.20;;;22.90;79.50;;;;;;4996427;28;20354;-80
2021/06/03 10:57:49;;;;;;;8.25;6.18;;;22.80;81.40;;;;;;4996551;28;20033;-80
2021/06/03 11:00:22;;;;;;;7.90;6.22;;;23.10;79.50;;;;;;4977802;28;20032;-80
2021/06/03 11:02:53;;;;;;;10.77;7.10;;;23.20;77.50;;;;;;5024113;28;20669;-80
2021/06/03 11:05:27;;;;;;;9.25;7.40;;;23.30;77.30;;;;;;4992828;28;20089;-80
2021/06/03 11:07:53;;;;;;;8.20;6.90;;;23.50;78.20;;;;;;4988154;28;20075;-80
2021/06/03 11:10:31;;;;;;;10.60;6.97;;;23.30;75.90;;;;;;4997098;28;20030;-80
2021/06/03 11:13:13;;;;;;;10.43;7.75;;;23.50;75.90;;;;;;5020450;28;20026;-79
2021/06/03 11:16:02;;;;;;;8.75;7.75;;;23.50;73.50;;;;;;5005702;28;20463;-80
2021/06/03 11:18:49;;;;;;;10.45;7.15;;;23.20;75.80;;;;;;5006767;28;20026;-80
2021/06/03 11:23:59;;;;;;;9.27;7.38;;;23.70;75.50;;;;;;4998476;28;20034;-80
2021/06/03 11:26:49;;;;;;;7.75;6.95;;;23.20;73.20;;;;;;5001163;28;20041;-80
2021/06/03 11:29:25;;;;;;;12.65;6.60;;;23.70;75.10;;;;;;4996691;28;20409;-80
2021/06/03 11:32:11;;;;;;;7.65;6.45;;;24.10;73.00;;;;;;5014696;28;20026;-80
2021/06/03 11:34:40;;;;;;;8.70;7.70;;;23.80;72.00;;;;;;4998017;28;20031;-80
2021/06/03 11:37:22;;;;;;;12.23;7.93;;;23.60;71.30;;;;;;5014751;28;20026;-80
2021/06/03 11:40:03;;;;;;;10.05;7.25;;;23.70;71.20;;;;;;4981162;28;20052;-80
2021/06/03 11:42:33;;;;;;;7.97;6.20;;;23.80;73.80;;;;;;4994470;28;20193;-79
2021/06/03 11:45:25;;;;;;;9.48;6.57;;;24.10;69.80;;;;;;4992176;28;20037;-79
2021/06/03 11:47:52;;;;;;;8.20;6.07;;;24.10;68.90;;;;;;5008845;28;20093;-79
2021/06/03 11:50:18;;;;;;;11.90;7.30;;;24.20;70.60;;;;;;4993397;28;20038;-80
2021/06/03 11:52:56;;;;;;;7.78;6.93;;;23.90;70.30;;;;;;4989941;28;20041;-80
2021/06/03 11:55:36;;;;;;;10.00;7.05;;;23.80;72.60;;;;;;5009647;28;20047;-80
2021/06/03 11:58:28;;;;;;;10.45;6.50;;;24.20;69.80;;;;;;5006457;28;20018;-80
2021/06/03 12:01:06;;;;;;;8.68;6.72;;;23.90;70.30;;;;;;5008465;28;20021;-80
2021/06/03 12:04:04;;;;;;;10.27;7.55;;;23.60;71.40;;;;;;5007922;28;20149;-80
2021/06/03 12:06:30;;;;;;;9.68;6.70;;;23.70;70.40;;;;;;4989536;28;20053;-80
2021/06/03 12:08:57;;;;;;;9.48;6.13;;;23.70;70.30;;;;;;5009766;28;20303;-80
2021/06/03 12:11:44;;;;;;;7.10;5.93;;;24.50;68.30;;;;;;4991515;28;20022;-80
2021/06/03 12:14:10;;;;;;;8.45;5.07;;;24.50;65.90;;;;;;4964392;28;20030;-80
2021/06/03 12:16:39;;;;;;;7.55;6.10;;;24.20;69.00;;;;;;4983481;28;20452;-80
2021/06/03 12:19:15;;;;;;;7.32;5.20;;;24.50;66.20;;;;;;4991088;28;20030;-80
2021/06/03 12:21:42;;;;;;;6.90;4.72;;;24.10;65.50;;;;;;4975267;28;20275;-79
2021/06/03 12:24:08;;;;;;;7.75;4.78;;;24.30;66.50;;;;;;4981303;28;20042;-80
2021/06/03 12:26:36;;;;;;;10.65;4.85;;;24.20;65.30;;;;;;4982822;28;20030;-80
2021/06/03 12:29:02;;;;;;;7.80;4.78;;;24.20;66.90;;;;;;5010913;28;20029;-80
2021/06/03 12:31:27;;;;;;;8.32;5.43;;;24.30;63.80;;;;;;4959793;28;20664;-80
2021/06/03 12:33:54;;;;;;;7.45;5.75;;;24.40;65.00;;;;;;4981399;28;20119;-80
2021/06/03 12:36:20;;;;;;;7.72;5.25;;;23.90;66.70;;;;;;4994882;28;20097;-80
2021/06/03 12:38:48;;;;;;;8.27;5.72;;;24.10;66.40;;;;;;5004997;28;20117;-80
2021/06/03 12:41:21;;;;;;;8.65;5.45;;;24.40;65.90;;;;;;4981438;28;20102;-80
2021/06/03 12:43:49;;;;;;;7.28;6.00;;;24.60;66.40;;;;;;5006576;28;20498;-80
2021/06/03 12:46:15;;;;;;;8.50;6.78;;;24.50;64.60;;;;;;4991538;28;20113;-80
2021/06/03 12:48:41;;;;;;;10.25;6.60;;;24.40;65.60;;;;;;4986918;28;20140;-80
2021/06/03 12:51:08;;;;;;;7.85;6.20;;;24.00;67.10;;;;;;4965620;28;20026;-80
2021/06/03 12:53:34;;;;;;;9.23;7.10;;;24.30;68.90;;;;;;5005195;28;20332;-80
2021/06/03 12:56:16;;;;;;;8.95;6.18;;;24.10;69.00;;;;;;4982600;28;20021;-79